Time;durP1;ratioP1;P1;durP2;ratioP2;P2;SDS_P1;SDS_P2;PMS_P1;PMS_P2;Temp;Humidity;BMP_temperature;BMP_pressure;BME280_temperature;BME280_humidity;BME280_pressure;Samples;Min_cycle;Max_cycle;Signal;HPM_P1;HPM_P2
2023/01/15 00:00:04;;;;;;;2.17;1.03;;;11.00;84.10;;;;;;5029307;28;20177;-77
2023/01/15 00:02:30;;;;;;;1.30;0.87;;;10.90;84.30;;;;;;5032207;28;20174;-77
2023/01/15 00:04:56;;;;;;;0.97;0.70;;;10.90;84.40;;;;;;5032261;28;20420;-75
2023/01/15 00:07:22;;;;;;;3.10;1.00;;;10.90;84.10;;;;;;5027148;28;20470;-75
2023/01/15 00:09:48;;;;;;;1.40;0.90;;;11.00;84.10;;;;;;5026219;28;20190;-76
2023/01/15 00:12:14;;;;;;;1.67;0.90;;;11.00;84.00;;;;;;5032070;28;20304;-76
2023/01/15 00:14:40;;;;;;;1.30;0.97;;;11.00;84.00;;;;;;5029249;28;20486;-75
2023/01/15 00:17:05;;;;;;;1.23;0.90;;;11.10;83.70;;;;;;5027631;28;20208;-75
2023/01/15 00:19:31;;;;;;;1.33;1.03;;;11.10;83.60;;;;;;5031277;28;20174;-77
2023/01/15 00:21:57;;;;;;;1.67;1.00;;;11.10;83.40;;;;;;5043244;28;20272;-75
2023/01/15 00:29:54;;;;;;;2.37;0.80;;;11.20;83.10;;;;;;5041944;28;20411;-76
2023/01/15 00:32:20;;;;;;;1.93;0.90;;;11.20;83.10;;;;;;5052409;28;20640;-76
2023/01/15 00:34:45;;;;;;;1.17;0.90;;;11.20;83.10;;;;;;5029572;28;20299;-75
2023/01/15 00:37:11;;;;;;;1.07;0.80;;;11.20;83.30;;;;;;5026755;28;20708;-76
2023/01/15 00:39:36;;;;;;;1.47;1.23;;;11.20;83.10;;;;;;5032735;28;20183;-76
2023/01/15 00:42:02;;;;;;;1.60;0.87;;;11.30;83.10;;;;;;5028442;28;20189;-77
2023/01/15 00:44:28;;;;;;;1.47;0.90;;;11.20;83.10;;;;;;5029026;28;20189;-77
2023/01/15 00:46:53;;;;;;;1.33;0.87;;;11.30;83.10;;;;;;5028081;28;20208;-76
2023/01/15 00:49:19;;;;;;;1.27;0.80;;;11.30;82.70;;;;;;5030480;28;20270;-76
2023/01/15 00:51:44;;;;;;;1.50;0.70;;;11.30;82.50;;;;;;5029324;28;20195;-75
2023/01/15 00:54:10;;;;;;;0.93;0.83;;;11.30;82.40;;;;;;5030285;28;20600;-75
2023/01/15 00:56:35;;;;;;;0.90;0.80;;;11.30;82.40;;;;;;5025750;28;20181;-76
2023/01/15 00:59:03;;;;;;;1.70;0.90;;;11.30;82.10;;;;;;5027853;28;20263;-77
2023/01/15 01:01:28;;;;;;;1.67;0.90;;;11.40;81.90;;;;;;5024100;28;20196;-76
2023/01/15 01:03:54;;;;;;;1.67;0.70;;;11.30;81.80;;;;;;5030123;28;20495;-76
2023/01/15 01:06:20;;;;;;;1.47;0.77;;;11.30;81.50;;;;;;5031017;28;20197;-75
2023/01/15 01:08:47;;;;;;;1.10;0.70;;;11.30;81.50;;;;;;5024535;28;20232;-76
2023/01/15 01:11:19;;;;;;;1.03;0.80;;;11.30;81.40;;;;;;5020217;28;20437;-76
2023/01/15 01:13:45;;;;;;;1.83;0.70;;;11.30;81.40;;;;;;5031217;28;20851;-76
2023/01/15 01:16:29;;;;;;;1.53;0.70;;;11.30;81.20;;;;;;5029544;28;20442;-76
2023/01/15 01:18:56;;;;;;;2.13;0.90;;;11.30;81.20;;;;;;5021995;28;20428;-74
2023/01/15 01:21:21;;;;;;;0.80;0.70;;;11.30;81.20;;;;;;5028754;28;20474;-76
2023/01/15 01:23:47;;;;;;;2.40;0.77;;;11.40;80.90;;;;;;5028593;28;20431;-75
2023/01/15 01:26:13;;;;;;;2.27;0.83;;;11.40;80.80;;;;;;5027246;28;20283;-76
2023/01/15 01:28:39;;;;;;;1.87;0.83;;;11.40;80.80;;;;;;5023260;28;20221;-74
2023/01/15 01:31:06;;;;;;;1.60;0.80;;;11.40;80.60;;;;;;5027057;28;20636;-76
2023/01/15 01:33:31;;;;;;;0.80;0.63;;;11.40;80.80;;;;;;5028268;28;20454;-74
2023/01/15 01:35:57;;;;;;;0.93;0.80;;;11.40;80.80;;;;;;5027947;28;20829;-75
2023/01/15 01:38:25;;;;;;;1.70;0.93;;;11.40;80.60;;;;;;5026708;28;20223;-75
2023/01/15 01:40:51;;;;;;;3.33;0.83;;;11.40;80.80;;;;;;5024826;28;20185;-76
2023/01/15 01:43:26;;;;;;;1.77;1.03;;;11.40;80.90;;;;;;5028689;28;20494;-75
2023/01/15 01:45:52;;;;;;;1.80;0.70;;;11.40;81.20;;;;;;5027701;28;20230;-76
2023/01/15 01:48:22;;;;;;;2.50;0.77;;;11.40;81.20;;;;;;5027316;28;20467;-76
2023/01/15 01:50:49;;;;;;;0.90;0.80;;;11.40;81.20;;;;;;5027455;28;20200;-77
2023/01/15 01:53:26;;;;;;;1.20;0.80;;;11.40;81.20;;;;;;5025635;28;20420;-76
2023/01/15 01:55:52;;;;;;;0.90;0.80;;;11.40;81.70;;;;;;5022482;28;20474;-75
2023/01/15 01:58:20;;;;;;;5.60;1.33;;;11.40;81.70;;;;;;5023020;28;20504;-75
2023/01/15 02:00:48;;;;;;;1.07;0.83;;;11.40;81.80;;;;;;5021907;28;20455;-76
2023/01/15 02:03:15;;;;;;;1.50;1.23;;;11.40;81.80;;;;;;5025617;28;20811;-77
2023/01/15 02:05:47;;;;;;;1.53;1.00;;;11.40;82.10;;;;;;5025999;28;20438;-76
2023/01/15 02:08:13;;;;;;;1.20;0.80;;;11.40;82.20;;;;;;5028046;28;20490;-74
2023/01/15 02:10:40;;;;;;;1.33;0.70;;;11.40;82.20;;;;;;5028753;28;20428;-75
2023/01/15 02:13:29;;;;;;;2.83;0.90;;;11.40;82.40;;;;;;5036545;28;20264;-76
2023/01/15 02:16:16;;;;;;;1.07;0.67;;;11.40;82.50;;;;;;5027445;28;20416;-77
2023/01/15 02:19:09;;;;;;;1.37;0.77;;;11.40;82.50;;;;;;5026665;28;20459;-74
2023/01/15 02:21:42;;;;;;;1.47;0.80;;;11.40;82.70;;;;;;5027843;28;20425;-76
2023/01/15 02:24:16;;;;;;;0.80;0.63;;;11.40;83.00;;;;;;5027432;28;20442;-76
2023/01/15 02:27:02;;;;;;;0.90;0.70;;;11.40;83.10;;;;;;5028889;28;20696;-75
2023/01/15 02:29:43;;;;;;;2.87;0.97;;;11.40;83.40;;;;;;5027588;28;20412;-76
2023/01/15 02:32:30;;;;;;;0.67;0.57;;;11.40;83.40;;;;;;5028765;28;20428;-77
2023/01/15 02:35:00;;;;;;;1.10;0.70;;;11.40;83.60;;;;;;5021107;28;20992;-76
2023/01/15 02:37:29;;;;;;;1.43;0.70;;;11.40;83.60;;;;;;5028291;28;20459;-75
2023/01/15 02:39:58;;;;;;;0.80;0.70;;;11.40;83.70;;;;;;5036429;28;20420;-76
2023/01/15 02:42:26;;;;;;;1.80;1.13;;;11.50;83.60;;;;;;5033285;28;20434;-76
2023/01/15 02:44:54;;;;;;;1.47;0.90;;;11.50;83.40;;;;;;5027884;28;20765;-75
2023/01/15 02:47:26;;;;;;;1.13;0.60;;;11.50;83.60;;;;;;5028361;28;20464;-76
2023/01/15 02:49:56;;;;;;;0.77;0.63;;;11.50;83.60;;;;;;5031651;28;20415;-77
2023/01/15 02:52:27;;;;;;;3.37;0.80;;;11.50;83.60;;;;;;5028124;28;20928;-75
2023/01/15 02:55:04;;;;;;;1.03;0.80;;;11.50;83.70;;;;;;5030312;28;20961;-75
2023/01/15 02:57:33;;;;;;;1.50;0.70;;;11.50;83.60;;;;;;5029168;28;20505;-78
2023/01/15 03:00:04;;;;;;;1.00;0.70;;;11.50;83.80;;;;;;5032835;28;20416;-77
2023/01/15 03:02:37;;;;;;;1.03;0.60;;;11.60;84.40;;;;;;5029845;28;20925;-75
2023/01/15 03:05:12;;;;;;;1.77;0.70;;;11.50;84.70;;;;;;5032115;28;20434;-76
2023/01/15 03:07:48;;;;;;;0.80;0.60;;;11.50;84.70;;;;;;5027115;28;20462;-76
2023/01/15 03:10:15;;;;;;;0.90;0.60;;;11.50;85.00;;;;;;5027591;28;20466;-76
2023/01/15 03:13:01;;;;;;;0.60;0.60;;;11.50;85.00;;;;;;5033483;28;20436;-75
2023/01/15 03:18:26;;;;;;;0.60;0.50;;;11.50;85.50;;;;;;5028932;28;20517;-76
2023/01/15 03:20:55;;;;;;;3.43;0.70;;;11.50;85.30;;;;;;5033060;28;20408;-77
2023/01/15 03:23:26;;;;;;;0.90;0.50;;;11.60;85.20;;;;;;5032776;28;20430;-76
2023/01/15 03:25:51;;;;;;;0.80;0.57;;;11.60;85.20;;;;;;5035535;28;20419;-76
2023/01/15 03:28:22;;;;;;;1.00;0.70;;;11.60;85.00;;;;;;5031156;28;20482;-77
2023/01/15 03:30:48;;;;;;;1.60;0.60;;;11.60;85.00;;;;;;5035381;28;20173;-76
2023/01/15 03:33:14;;;;;;;1.57;0.90;;;11.60;85.00;;;;;;5035695;28;21120;-77
2023/01/15 03:35:57;;;;;;;0.77;0.70;;;11.80;84.60;;;;;;5034141;28;20778;-76
2023/01/15 03:38:29;;;;;;;1.37;0.70;;;11.80;84.10;;;;;;5032338;28;20205;-76
2023/01/15 03:40:59;;;;;;;0.97;0.60;;;12.00;83.30;;;;;;5032706;28;20408;-76
2023/01/15 03:43:57;;;;;;;1.53;0.60;;;12.10;82.80;;;;;;5035332;28;20434;-77
2023/01/15 03:46:41;;;;;;;2.40;0.70;;;12.20;82.70;;;;;;5017069;28;20478;-76
2023/01/15 03:49:22;;;;;;;1.90;1.10;;;12.20;82.40;;;;;;5026303;28;20421;-76
2023/01/15 03:52:06;;;;;;;0.80;0.60;;;12.30;81.70;;;;;;5040163;28;20416;-75
2023/01/15 03:55:10;;;;;;;0.73;0.60;;;12.30;81.40;;;;;;5033304;28;20464;-76
2023/01/15 03:57:49;;;;;;;0.80;0.50;;;12.40;80.90;;;;;;5028369;28;20558;-77
2023/01/15 04:00:21;;;;;;;0.80;0.60;;;12.50;80.80;;;;;;5034003;28;20812;-76
2023/01/15 04:02:48;;;;;;;0.83;0.67;;;12.60;80.20;;;;;;5034359;28;20423;-76
2023/01/15 04:05:15;;;;;;;0.77;0.60;;;12.60;80.20;;;;;;5033452;28;20499;-75
2023/01/15 04:07:42;;;;;;;1.67;0.50;;;12.60;79.90;;;;;;5030232;28;20486;-77
2023/01/15 04:10:09;;;;;;;0.90;0.60;;;12.70;79.20;;;;;;5032418;28;20475;-77
2023/01/15 04:12:34;;;;;;;0.60;0.50;;;12.70;79.00;;;;;;5032425;28;20466;-75
2023/01/15 04:15:00;;;;;;;0.70;0.60;;;12.80;79.20;;;;;;5033257;28;20970;-76
2023/01/15 04:17:26;;;;;;;0.80;0.50;;;12.80;78.90;;;;;;5029706;28;20201;-75
2023/01/15 04:19:51;;;;;;;0.83;0.50;;;12.80;79.00;;;;;;5030404;28;20209;-77
2023/01/15 04:22:17;;;;;;;1.03;0.70;;;12.70;79.00;;;;;;5030277;28;20288;-76
2023/01/15 04:24:42;;;;;;;0.80;0.60;;;12.80;79.00;;;;;;5032595;28;20196;-76
2023/01/15 04:27:08;;;;;;;1.10;0.60;;;12.70;79.00;;;;;;5030320;28;20224;-76
2023/01/15 04:29:33;;;;;;;0.80;0.60;;;12.70;78.90;;;;;;5033481;28;20649;-76
2023/01/15 04:31:59;;;;;;;0.70;0.60;;;12.70;79.20;;;;;;5033334;28;20280;-77
2023/01/15 04:34:26;;;;;;;0.70;0.50;;;12.70;79.00;;;;;;5030114;28;20880;-75
2023/01/15 04:36:52;;;;;;;0.90;0.50;;;12.60;79.50;;;;;;5024820;28;20201;-77
2023/01/15 04:39:17;;;;;;;0.87;0.63;;;12.60;79.90;;;;;;5029115;28;20412;-77
2023/01/15 04:44:28;;;;;;;0.70;0.50;;;12.50;79.90;;;;;;5030807;28;20658;-76
2023/01/15 04:46:54;;;;;;;1.10;0.60;;;12.50;80.00;;;;;;5032681;28;21312;-76
2023/01/15 04:49:20;;;;;;;0.70;0.50;;;12.50;80.20;;;;;;5028106;28;20464;-76
2023/01/15 04:51:46;;;;;;;1.43;0.60;;;12.50;80.20;;;;;;5033230;28;20428;-76
2023/01/15 04:54:14;;;;;;;0.70;0.50;;;12.50;80.20;;;;;;5032522;28;20563;-75
2023/01/15 04:56:45;;;;;;;0.70;0.50;;;12.50;80.30;;;;;;5031283;28;20423;-76
2023/01/15 04:59:11;;;;;;;1.63;0.50;;;12.50;80.50;;;;;;5030217;28;20428;-76
2023/01/15 05:01:37;;;;;;;2.60;1.57;;;12.50;80.60;;;;;;5032564;28;20482;-76
2023/01/15 05:04:03;;;;;;;1.30;0.70;;;12.50;80.60;;;;;;5035581;28;20424;-76
2023/01/15 05:06:32;;;;;;;1.97;0.60;;;12.50;80.60;;;;;;5036122;28;20254;-76
2023/01/15 05:08:59;;;;;;;0.80;0.50;;;12.50;80.60;;;;;;5038172;28;20485;-77
2023/01/15 05:11:25;;;;;;;0.80;0.50;;;12.50;80.30;;;;;;5037869;28;20915;-76
2023/01/15 05:13:50;;;;;;;0.63;0.47;;;12.50;80.30;;;;;;5028874;28;20463;-77
2023/01/15 05:16:25;;;;;;;0.80;0.60;;;12.50;80.30;;;;;;5025685;28;20462;-75
2023/01/15 05:18:52;;;;;;;1.60;0.57;;;12.60;79.70;;;;;;5022145;28;20263;-77
2023/01/15 05:21:19;;;;;;;1.10;0.50;;;12.60;79.70;;;;;;5024660;28;20428;-78
2023/01/15 05:23:46;;;;;;;1.67;0.60;;;12.60;79.70;;;;;;5027013;28;20532;-76
2023/01/15 05:26:12;;;;;;;1.03;0.70;;;12.60;79.70;;;;;;5026154;28;20808;-76
2023/01/15 05:28:37;;;;;;;0.80;0.50;;;12.70;80.30;;;;;;5020381;28;20546;-77
2023/01/15 05:31:14;;;;;;;1.70;0.73;;;11.90;83.00;;;;;;5023153;28;20441;-75
2023/01/15 05:33:40;;;;;;;0.60;0.50;;;11.20;86.20;;;;;;5030278;28;20251;-74
2023/01/15 05:36:10;;;;;;;1.20;0.57;;;10.60;88.60;;;;;;5030559;28;20477;-75
2023/01/15 05:38:36;;;;;;;0.80;0.60;;;10.20;90.00;;;;;;5023582;28;20462;-75
2023/01/15 05:41:47;;;;;;;1.00;0.50;;;10.00;90.70;;;;;;5031267;28;20495;-74
2023/01/15 05:43:49;;;;;;;0.90;0.60;;;9.90;91.30;;;;;;5026779;28;20200;-75
2023/01/15 05:46:14;;;;;;;1.53;0.80;;;9.50;90.80;;;;;;5029981;28;20431;-75
2023/01/15 05:48:40;;;;;;;1.20;0.60;;;9.30;91.30;;;;;;5027779;28;20296;-75
2023/01/15 05:51:06;;;;;;;1.10;0.60;;;9.30;91.70;;;;;;5031915;28;20648;-73
2023/01/15 05:53:33;;;;;;;0.70;0.50;;;9.10;91.80;;;;;;5028673;28;20269;-75
2023/01/15 05:56:03;;;;;;;0.70;0.50;;;9.00;91.70;;;;;;5029396;28;20281;-75
2023/01/15 05:58:29;;;;;;;0.70;0.50;;;8.90;91.70;;;;;;5027012;28;20494;-74
2023/01/15 06:00:54;;;;;;;0.50;0.50;;;8.90;91.80;;;;;;5036727;28;20424;-74
2023/01/15 06:03:21;;;;;;;0.87;0.47;;;8.80;91.00;;;;;;5039458;28;20992;-73
2023/01/15 06:05:54;;;;;;;0.70;0.50;;;8.70;90.50;;;;;;5039667;28;20189;-74
2023/01/15 06:08:20;;;;;;;0.60;0.53;;;8.70;90.60;;;;;;5039115;28;20477;-74
2023/01/15 06:10:46;;;;;;;0.50;0.40;;;8.70;90.50;;;;;;5038306;28;20427;-73
2023/01/15 06:13:13;;;;;;;0.87;0.50;;;8.60;89.90;;;;;;5041901;28;20918;-73
2023/01/15 06:15:39;;;;;;;0.60;0.40;;;8.60;89.90;;;;;;5035157;28;20474;-74
2023/01/15 06:18:04;;;;;;;0.50;0.40;;;8.60;89.70;;;;;;5033275;28;20498;-74
2023/01/15 06:20:30;;;;;;;0.60;0.50;;;8.60;89.70;;;;;;5043650;28;20420;-74
2023/01/15 06:22:56;;;;;;;1.27;0.50;;;8.60;89.70;;;;;;5054801;28;20215;-73
2023/01/15 06:25:36;;;;;;;0.87;0.50;;;8.60;90.00;;;;;;5053687;28;20199;-75
2023/01/15 06:28:03;;;;;;;0.97;0.60;;;8.40;89.50;;;;;;5053013;28;20212;-74
2023/01/15 06:30:28;;;;;;;0.70;0.57;;;8.50;89.60;;;;;;5050592;28;20474;-74
2023/01/15 06:32:54;;;;;;;0.60;0.50;;;8.50;89.60;;;;;;5037930;28;20538;-74
2023/01/15 06:35:19;;;;;;;0.67;0.50;;;8.50;89.60;;;;;;5036617;28;20239;-74
2023/01/15 06:37:45;;;;;;;1.53;0.87;;;8.50;89.50;;;;;;5036672;28;20246;-73
2023/01/15 06:40:11;;;;;;;0.80;0.50;;;8.50;89.70;;;;;;5035201;28;20208;-74
2023/01/15 06:48:06;;;;;;;0.97;0.60;;;8.30;90.30;;;;;;5029419;28;20470;-73
2023/01/15 06:50:31;;;;;;;1.00;0.60;;;8.30;90.60;;;;;;5033988;28;20424;-75
2023/01/15 06:52:57;;;;;;;0.87;0.50;;;8.10;90.70;;;;;;5038987;28;20420;-75
2023/01/15 06:55:23;;;;;;;1.00;0.60;;;8.00;91.10;;;;;;5036834;28;20309;-74
2023/01/15 06:57:48;;;;;;;1.00;0.60;;;8.00;91.40;;;;;;5037553;28;20697;-73
2023/01/15 07:00:15;;;;;;;0.60;0.50;;;7.90;91.70;;;;;;5033340;28;20781;-73
2023/01/15 07:02:40;;;;;;;1.33;0.60;;;7.80;91.80;;;;;;5039586;28;20231;-74
2023/01/15 07:05:06;;;;;;;0.70;0.60;;;7.60;91.60;;;;;;5033708;28;20424;-74
2023/01/15 07:07:32;;;;;;;0.70;0.60;;;7.60;91.90;;;;;;5037069;28;20213;-74
2023/01/15 07:09:59;;;;;;;0.77;0.60;;;7.50;91.80;;;;;;5040515;28;20506;-73
2023/01/15 07:12:25;;;;;;;1.10;0.63;;;7.40;92.20;;;;;;5038252;28;20423;-73
2023/01/15 07:14:51;;;;;;;0.60;0.50;;;7.40;92.20;;;;;;5037531;28;20491;-73
2023/01/15 07:17:17;;;;;;;0.73;0.57;;;7.40;92.30;;;;;;5032094;28;20470;-72
2023/01/15 07:19:43;;;;;;;0.80;0.50;;;7.30;91.80;;;;;;5030664;28;20927;-75
2023/01/15 07:22:09;;;;;;;0.60;0.60;;;7.20;91.30;;;;;;5036358;28;20177;-74
2023/01/15 07:24:35;;;;;;;0.77;0.50;;;7.20;90.90;;;;;;5028861;28;20418;-73
2023/01/15 07:27:01;;;;;;;0.93;0.70;;;7.10;90.90;;;;;;5031494;28;20550;-74
2023/01/15 07:29:27;;;;;;;0.70;0.50;;;7.00;90.60;;;;;;5035082;28;20457;-74
2023/01/15 07:31:53;;;;;;;0.50;0.50;;;7.10;90.70;;;;;;5037944;28;20204;-72
2023/01/15 07:34:19;;;;;;;0.60;0.50;;;6.90;90.30;;;;;;5038046;28;20572;-73
2023/01/15 07:36:45;;;;;;;1.00;0.60;;;6.90;90.20;;;;;;5036752;28;20451;-73
2023/01/15 07:39:11;;;;;;;0.70;0.50;;;6.80;90.20;;;;;;5030295;28;20420;-73
2023/01/15 07:50:13;;;;;;;0.70;0.60;;;6.70;90.00;;;;;;5031282;28;20468;-73
2023/01/15 07:52:39;;;;;;;0.80;0.67;;;6.70;90.20;;;;;;5032421;28;20415;-74
2023/01/15 07:55:07;;;;;;;1.63;0.70;;;6.60;89.90;;;;;;5028359;28;20579;-74
2023/01/15 07:57:33;;;;;;;0.70;0.60;;;6.70;89.70;;;;;;5031889;28;20221;-74
2023/01/15 07:59:58;;;;;;;0.60;0.50;;;6.80;90.00;;;;;;5037183;28;20976;-73
2023/01/15 08:02:24;;;;;;;0.97;0.60;;;6.80;89.70;;;;;;5039100;28;20212;-73
2023/01/15 08:04:49;;;;;;;0.90;0.50;;;6.80;89.60;;;;;;5037921;28;20187;-73
2023/01/15 08:07:15;;;;;;;0.60;0.40;;;6.80;89.20;;;;;;5033267;28;20228;-73
2023/01/15 08:09:41;;;;;;;0.73;0.63;;;6.80;89.20;;;;;;5028085;28;20201;-74
2023/01/15 08:17:36;;;;;;;0.93;0.53;;;6.80;89.60;;;;;;5021732;28;20494;-75
2023/01/15 08:20:04;;;;;;;0.90;0.60;;;6.90;89.70;;;;;;5031761;28;20803;-74
2023/01/15 08:22:30;;;;;;;0.70;0.50;;;6.80;89.30;;;;;;5030653;28;20420;-76
2023/01/15 08:24:55;;;;;;;0.87;0.63;;;6.90;89.50;;;;;;5023661;28;20483;-75
2023/01/15 08:27:21;;;;;;;0.83;0.60;;;6.90;89.50;;;;;;5022577;28;20464;-74
2023/01/15 08:29:47;;;;;;;0.70;0.50;;;6.90;88.60;;;;;;5026508;28;20277;-75
2023/01/15 08:32:12;;;;;;;0.60;0.50;;;6.90;88.30;;;;;;5025261;28;20428;-75
2023/01/15 08:34:38;;;;;;;1.13;0.60;;;6.80;87.00;;;;;;5036960;28;20208;-73
2023/01/15 08:37:04;;;;;;;0.73;0.50;;;6.80;87.70;;;;;;5035918;28;20216;-75
2023/01/15 08:39:29;;;;;;;0.60;0.50;;;6.90;87.40;;;;;;5040456;28;20201;-73
2023/01/15 08:41:55;;;;;;;1.27;0.60;;;6.90;87.80;;;;;;5039687;28;20181;-74
2023/01/15 08:44:22;;;;;;;1.60;0.67;;;6.90;86.90;;;;;;5032418;28;20240;-74
2023/01/15 08:46:49;;;;;;;0.60;0.50;;;6.80;86.50;;;;;;5036072;28;20475;-76
2023/01/15 08:49:15;;;;;;;0.60;0.53;;;6.90;86.90;;;;;;5038242;28;20519;-74
2023/01/15 08:51:41;;;;;;;0.60;0.50;;;6.90;87.10;;;;;;5037936;28;20448;-75
2023/01/15 08:54:06;;;;;;;1.00;0.60;;;6.90;87.10;;;;;;5036646;28;20614;-76
2023/01/15 08:56:32;;;;;;;0.87;0.50;;;6.90;87.80;;;;;;5034095;28;20499;-73
2023/01/15 08:58:57;;;;;;;0.80;0.53;;;6.90;87.80;;;;;;5026407;28;20204;-75
2023/01/15 09:01:23;;;;;;;1.73;0.70;;;6.80;88.00;;;;;;5030122;28;20196;-75
2023/01/15 09:03:48;;;;;;;0.50;0.40;;;6.80;88.10;;;;;;5026251;28;20208;-73
2023/01/15 09:06:14;;;;;;;1.27;0.70;;;6.70;88.60;;;;;;5031917;28;20221;-73
2023/01/15 09:08:40;;;;;;;1.03;0.60;;;6.70;88.60;;;;;;5019067;28;20213;-74
2023/01/15 09:11:08;;;;;;;1.23;0.70;;;6.70;88.90;;;;;;5030697;28;20190;-75
2023/01/15 09:13:35;;;;;;;1.00;0.60;;;6.80;89.00;;;;;;5028509;28;20177;-75
2023/01/15 09:16:02;;;;;;;1.70;0.67;;;6.80;88.90;;;;;;5029734;28;20475;-74
2023/01/15 09:18:28;;;;;;;0.90;0.60;;;6.80;89.00;;;;;;5023862;28;20820;-75
2023/01/15 09:20:53;;;;;;;1.60;0.80;;;6.90;89.30;;;;;;5028754;28;20435;-73
2023/01/15 09:23:19;;;;;;;1.10;0.90;;;6.90;89.50;;;;;;5029177;28;20218;-75
2023/01/15 09:25:59;;;;;;;1.00;0.80;;;6.90;89.20;;;;;;5031221;28;20239;-76
2023/01/15 09:28:26;;;;;;;1.40;0.77;;;6.90;89.30;;;;;;5022909;28;20588;-74
2023/01/15 09:30:51;;;;;;;6.37;1.60;;;6.90;89.50;;;;;;5029783;28;20436;-76
2023/01/15 09:33:17;;;;;;;1.83;0.97;;;6.90;89.20;;;;;;5029904;28;20412;-73
2023/01/15 09:35:43;;;;;;;0.90;0.73;;;6.90;89.50;;;;;;5031774;28;20192;-75
2023/01/15 09:38:12;;;;;;;1.83;0.77;;;7.00;89.50;;;;;;5023337;28;20208;-74
2023/01/15 09:40:55;;;;;;;0.83;0.80;;;7.00;89.50;;;;;;5028230;28;20427;-75
2023/01/15 09:43:51;;;;;;;2.10;0.87;;;7.00;89.20;;;;;;5030577;28;20843;-75
2023/01/15 09:46:39;;;;;;;0.97;0.60;;;7.10;88.40;;;;;;5029258;28;20425;-76
2023/01/15 09:49:45;;;;;;;0.70;0.57;;;7.20;88.30;;;;;;5025885;28;20474;-73
2023/01/15 09:52:38;;;;;;;1.00;0.60;;;7.20;88.00;;;;;;5028186;28;20426;-75
2023/01/15 09:55:34;;;;;;;0.97;0.70;;;7.10;86.50;;;;;;5032785;28;20900;-76
2023/01/15 09:58:03;;;;;;;1.30;0.70;;;7.10;85.50;;;;;;5006623;28;20469;-75
2023/01/15 10:00:37;;;;;;;0.70;0.60;;;7.10;85.90;;;;;;4991539;28;20421;-77
2023/01/15 10:03:34;;;;;;;1.20;0.70;;;7.10;86.20;;;;;;4992762;28;20424;-76
2023/01/15 10:06:16;;;;;;;0.80;0.60;;;7.00;83.80;;;;;;4987821;28;20431;-75
2023/01/15 10:08:45;;;;;;;0.80;0.70;;;6.90;84.40;;;;;;5011824;28;20548;-77
2023/01/15 10:11:16;;;;;;;2.10;0.80;;;7.00;85.50;;;;;;5014346;28;20520;-77
2023/01/15 10:13:49;;;;;;;0.70;0.70;;;7.00;85.60;;;;;;5011241;28;20417;-76
2023/01/15 10:16:27;;;;;;;0.80;0.57;;;7.00;84.70;;;;;;4991947;28;20478;-75
2023/01/15 10:18:56;;;;;;;1.27;0.60;;;6.90;84.30;;;;;;5004558;28;20535;-75
2023/01/15 10:21:50;;;;;;;1.10;0.70;;;6.90;84.60;;;;;;5003037;28;20426;-76
2023/01/15 10:24:38;;;;;;;0.83;0.60;;;6.90;84.90;;;;;;5008313;28;20420;-76
2023/01/15 10:27:20;;;;;;;0.70;0.50;;;6.90;84.40;;;;;;5009459;28;20495;-76
2023/01/15 10:29:54;;;;;;;0.70;0.50;;;6.70;84.70;;;;;;5005292;28;20539;-75
2023/01/15 10:32:23;;;;;;;0.73;0.67;;;6.70;85.30;;;;;;5009511;28;20468;-76
2023/01/15 10:34:59;;;;;;;0.60;0.50;;;6.70;85.60;;;;;;5026457;28;20870;-77
2023/01/15 10:37:50;;;;;;;1.03;0.60;;;6.70;85.50;;;;;;5029784;28;20551;-75
2023/01/15 10:40:37;;;;;;;1.50;1.00;;;6.60;85.50;;;;;;5028927;28;20428;-75
2023/01/15 10:43:44;;;;;;;0.70;0.60;;;6.70;86.20;;;;;;5029261;28;20887;-76
2023/01/15 10:46:21;;;;;;;2.40;0.67;;;6.70;85.60;;;;;;5030960;28;20423;-75
2023/01/15 10:48:52;;;;;;;0.90;0.70;;;6.60;85.00;;;;;;5031167;28;20918;-77
2023/01/15 10:51:40;;;;;;;0.90;0.50;;;6.60;85.70;;;;;;5036692;28;20474;-74
2023/01/15 10:54:34;;;;;;;0.90;0.63;;;6.60;86.20;;;;;;5027101;28;20469;-74
2023/01/15 10:57:10;;;;;;;2.17;0.80;;;6.60;85.60;;;;;;5033668;28;20587;-76
2023/01/15 10:59:58;;;;;;;2.43;0.80;;;6.50;85.20;;;;;;5038501;28;20890;-76
2023/01/15 11:02:41;;;;;;;0.80;0.73;;;6.40;86.50;;;;;;5035352;28;20939;-76
2023/01/15 11:05:15;;;;;;;0.80;0.60;;;6.10;86.80;;;;;;5027318;28;20467;-75
2023/01/15 11:07:50;;;;;;;1.27;0.60;;;5.70;87.10;;;;;;5040318;28;20459;-74
2023/01/15 11:10:19;;;;;;;0.90;0.60;;;5.60;87.60;;;;;;5039738;28;20415;-75
2023/01/15 11:21:18;;;;;;;1.47;0.70;;;5.30;85.90;;;;;;5039959;28;20442;-74
2023/01/15 11:23:44;;;;;;;0.70;0.50;;;5.20;85.50;;;;;;5038942;28;20957;-75
2023/01/15 11:26:19;;;;;;;1.10;0.60;;;5.20;86.20;;;;;;5032118;28;20428;-76
2023/01/15 11:28:46;;;;;;;0.80;0.60;;;5.10;86.30;;;;;;5029632;28;20452;-75
2023/01/15 11:31:12;;;;;;;1.43;0.80;;;5.00;86.60;;;;;;5035614;28;20430;-76
2023/01/15 11:33:39;;;;;;;1.00;0.70;;;5.00;87.30;;;;;;5029103;28;20416;-77
2023/01/15 11:36:20;;;;;;;2.40;0.80;;;5.10;87.80;;;;;;5026318;28;20465;-74
2023/01/15 11:38:48;;;;;;;1.57;0.70;;;5.00;87.70;;;;;;5032881;28;20462;-75
2023/01/15 11:52:56;;;;;;;1.47;0.70;;;4.90;87.30;;;;;;5021930;28;20978;-73
2023/01/15 11:55:25;;;;;;;0.90;0.60;;;4.80;87.40;;;;;;5028858;28;20471;-75
2023/01/15 11:57:51;;;;;;;0.60;0.50;;;4.80;87.00;;;;;;5028576;28;20473;-73
2023/01/15 12:00:31;;;;;;;2.30;0.80;;;4.80;87.60;;;;;;5026116;28;20417;-76
2023/01/15 12:03:04;;;;;;;1.00;0.60;;;4.80;87.70;;;;;;5028147;28;20412;-74
2023/01/15 12:05:34;;;;;;;0.80;0.60;;;4.80;87.10;;;;;;5033977;28;20420;-76
2023/01/15 12:08:26;;;;;;;0.80;0.70;;;4.80;87.00;;;;;;5032196;28;20975;-72
2023/01/15 12:11:21;;;;;;;1.23;0.67;;;4.80;87.10;;;;;;5032378;28;20420;-73
2023/01/15 12:14:51;;;;;;;0.70;0.60;;;4.70;86.60;;;;;;5024241;28;20441;-73
2023/01/15 12:17:50;;;;;;;1.20;0.70;;;4.80;87.60;;;;;;5026559;28;20470;-74
2023/01/15 12:20:30;;;;;;;0.70;0.60;;;4.80;87.60;;;;;;5028066;28;20432;-72
2023/01/15 12:23:38;;;;;;;1.93;0.80;;;4.70;86.80;;;;;;5027911;28;20514;-72
2023/01/15 12:26:27;;;;;;;0.67;0.60;;;4.70;87.00;;;;;;5018447;28;20927;-74
2023/01/15 12:28:59;;;;;;;0.80;0.67;;;4.80;87.70;;;;;;5025204;28;20464;-73
2023/01/15 12:31:42;;;;;;;1.43;0.77;;;4.90;87.60;;;;;;5031058;28;20505;-75
2023/01/15 12:34:21;;;;;;;0.90;0.80;;;4.80;86.90;;;;;;5024404;28;20464;-74
2023/01/15 12:37:00;;;;;;;1.37;0.83;;;4.80;86.90;;;;;;5027174;28;20518;-73
2023/01/15 12:39:33;;;;;;;1.70;0.67;;;4.80;87.10;;;;;;5033169;28;20514;-74
2023/01/15 12:44:59;;;;;;;1.33;1.00;;;4.80;85.70;;;;;;5028706;28;20807;-76
2023/01/15 12:47:52;;;;;;;1.80;1.13;;;4.80;85.90;;;;;;5032955;28;20578;-76
2023/01/15 12:50:27;;;;;;;1.40;0.87;;;4.80;85.70;;;;;;5033088;28;20416;-75
2023/01/15 12:53:25;;;;;;;2.30;0.80;;;4.80;85.90;;;;;;5030511;28;20423;-76
2023/01/15 12:56:16;;;;;;;1.30;0.80;;;4.90;85.70;;;;;;5024568;28;20468;-75
2023/01/15 12:59:05;;;;;;;2.10;1.10;;;4.90;84.90;;;;;;5036411;28;20471;-75
2023/01/15 13:01:52;;;;;;;3.67;1.40;;;4.90;84.60;;;;;;5028748;28;21013;-76
2023/01/15 13:04:31;;;;;;;2.40;1.23;;;5.00;84.90;;;;;;5036324;28;20424;-75
2023/01/15 13:07:03;;;;;;;1.53;1.00;;;5.00;84.40;;;;;;5038388;28;20455;-76
2023/01/15 13:09:35;;;;;;;2.03;0.80;;;5.10;84.40;;;;;;5028199;28;20877;-74
2023/01/15 13:12:00;;;;;;;1.97;1.03;;;5.10;84.00;;;;;;5024289;28;20443;-74
2023/01/15 13:14:26;;;;;;;1.73;0.97;;;5.10;84.00;;;;;;5023345;28;20495;-75
2023/01/15 13:17:35;;;;;;;2.07;0.90;;;5.20;83.60;;;;;;5027266;28;20259;-75
2023/01/15 13:20:19;;;;;;;1.03;0.80;;;5.30;83.30;;;;;;5028561;28;20185;-73
2023/01/15 13:23:07;;;;;;;1.10;0.70;;;5.30;82.50;;;;;;5031960;28;20449;-75
2023/01/15 13:25:53;;;;;;;2.13;1.00;;;5.30;82.20;;;;;;5029202;28;20833;-73
2023/01/15 13:28:35;;;;;;;2.03;1.03;;;5.30;82.40;;;;;;5029065;28;20504;-74
2023/01/15 13:31:26;;;;;;;1.77;0.90;;;5.40;82.70;;;;;;5022817;28;20404;-73
2023/01/15 13:33:55;;;;;;;1.47;0.93;;;5.40;82.80;;;;;;5034721;28;20416;-73
2023/01/15 13:36:20;;;;;;;4.50;1.10;;;5.40;82.40;;;;;;5041145;28;20432;-74
2023/01/15 13:38:51;;;;;;;1.13;0.90;;;5.50;82.50;;;;;;5037001;28;20552;-75
2023/01/15 13:44:32;;;;;;;2.63;1.20;;;5.40;83.00;;;;;;5039227;28;20451;-75
2023/01/15 13:47:02;;;;;;;3.23;1.10;;;5.50;83.30;;;;;;5036319;28;20460;-75
2023/01/15 13:49:34;;;;;;;3.13;1.00;;;5.40;83.10;;;;;;5031813;28;20435;-77
2023/01/15 13:52:03;;;;;;;1.90;0.93;;;5.50;83.00;;;;;;5034743;28;20452;-75
2023/01/15 13:54:31;;;;;;;2.77;1.30;;;5.50;82.80;;;;;;5027098;28;20574;-75
2023/01/15 13:57:23;;;;;;;1.60;1.10;;;5.50;82.70;;;;;;5024029;28;20472;-76
2023/01/15 13:59:49;;;;;;;1.50;1.20;;;5.60;82.50;;;;;;5021322;28;20431;-74
2023/01/15 14:02:24;;;;;;;1.47;0.83;;;5.70;81.90;;;;;;5022197;28;20943;-75
2023/01/15 14:04:50;;;;;;;4.80;1.50;;;5.70;81.70;;;;;;5027837;28;20433;-75
2023/01/15 14:07:22;;;;;;;2.43;1.30;;;5.80;80.60;;;;;;5024066;28;20468;-76
2023/01/15 14:09:48;;;;;;;2.47;1.20;;;5.80;80.30;;;;;;5029689;28;20491;-74
2023/01/15 14:12:37;;;;;;;2.10;1.40;;;5.90;79.60;;;;;;5030132;28;20431;-74